Time;durP1;ratioP1;P1;durP2;ratioP2;P2;SDS_P1;SDS_P2;PMS_P1;PMS_P2;Temp;Humidity;BMP_temperature;BMP_pressure;BME280_temperature;BME280_humidity;BME280_pressure;Samples;Min_cycle;Max_cycle;Signal;HPM_P1;HPM_P2
2021/06/13 00:05:06;;;;;;;1999.90;999.90;;;;;;;16.04;58.90;101536.63;15681574;28;20412;-82
2021/06/13 00:12:39;;;;;;;;;;;;;;;15.93;59.58;101540.25;15698584;28;20435;-83
2021/06/13 00:20:13;;;;;;;1999.90;999.90;;;;;;;15.79;60.04;101558.28;15682065;28;20474;-81
2021/06/13 00:27:46;;;;;;;1999.90;999.90;;;;;;;15.75;60.45;101559.34;15683827;28;20041;-83
2021/06/13 00:35:19;;;;;;;1999.90;999.90;;;;;;;15.54;60.16;101571.44;15702720;28;20102;-82
2021/06/13 00:42:55;;;;;;;1999.90;999.90;;;;;;;15.45;59.79;101579.13;15675665;28;20056;-81
2021/06/13 00:50:32;;;;;;;1999.90;999.90;;;;;;;15.16;59.12;101545.50;15675227;28;20047;-82
2021/06/13 00:58:06;;;;;;;1999.90;999.90;;;;;;;15.50;57.92;101581.72;15701361;28;20049;-83
2021/06/13 01:05:39;;;;;;;1999.90;999.90;;;;;;;15.39;58.99;101579.69;15671037;28;20115;-83
2021/06/13 01:13:18;;;;;;;1999.90;999.90;;;;;;;15.19;59.16;101590.59;15688360;28;20616;-81
2021/06/13 01:20:59;;;;;;;1999.90;999.90;;;;;;;15.24;58.90;101595.22;15685281;28;20128;-82
2021/06/13 01:28:58;;;;;;;1999.90;999.90;;;;;;;14.84;60.03;101606.09;15689498;28;20052;-81
2021/06/13 01:36:34;;;;;;;1999.90;999.90;;;;;;;14.76;59.30;101613.41;15691220;28;20060;-81
2021/06/13 01:44:09;;;;;;;1999.90;999.90;;;;;;;14.63;59.90;101583.56;15684872;28;20052;-83
2021/06/13 01:51:43;;;;;;;1999.90;999.90;;;;;;;14.75;59.95;101617.38;15700450;28;20041;-84
2021/06/13 01:59:18;;;;;;;1999.90;999.90;;;;;;;14.66;59.45;101617.41;15690087;28;20132;-83
2021/06/13 02:07:03;;;;;;;1999.90;999.90;;;;;;;14.47;60.01;101613.38;15691615;28;20068;-84
2021/06/13 02:14:43;;;;;;;1999.90;999.90;;;;;;;14.36;59.91;101612.91;15688463;28;20520;-85
2021/06/13 02:22:18;;;;;;;1999.90;999.90;;;;;;;14.23;60.92;101628.81;15722378;28;20056;-84
2021/06/13 02:29:52;;;;;;;1999.90;999.90;;;;;;;14.10;60.57;101621.44;15680885;28;20041;-82
2021/06/13 02:37:27;;;;;;;1999.90;999.90;;;;;;;14.01;61.86;101646.72;15680996;28;20045;-84
2021/06/13 02:45:00;;;;;;;1999.90;999.90;;;;;;;13.88;62.12;101632.91;15683683;28;20045;-85
2021/06/13 02:52:41;;;;;;;1999.90;999.90;;;;;;;14.16;61.87;101667.81;15680837;28;20149;-82
2021/06/13 03:00:17;;;;;;;1999.90;999.90;;;;;;;14.17;62.08;101669.44;15647125;22;20057;-62
2021/06/13 03:07:55;;;;;;;1999.90;999.90;;;;;;;13.96;62.75;101680.56;15605823;28;20037;-62
2021/06/13 03:15:30;;;;;;;1999.90;999.90;;;;;;;14.11;62.09;101698.88;15590411;28;20072;-62
2021/06/13 03:23:02;;;;;;;1999.90;999.90;;;;;;;14.27;61.82;101696.34;15605138;28;20053;-62
2021/06/13 03:30:38;;;;;;;1999.90;999.90;;;;;;;14.04;62.82;101712.56;15608630;28;20141;-62
2021/06/13 03:38:12;;;;;;;1999.90;999.90;;;;;;;14.06;62.99;101721.47;15605335;28;20038;-62
2021/06/13 03:45:47;;;;;;;1999.90;999.90;;;;;;;14.25;62.54;101727.56;15604746;28;20064;-61
2021/06/13 03:53:24;;;;;;;1999.90;999.90;;;;;;;14.31;62.77;101739.44;15622087;28;20045;-62
2021/06/13 04:00:59;;;;;;;1999.90;999.90;;;;;;;14.19;62.76;101751.38;15620584;28;20041;-63
2021/06/13 04:08:33;;;;;;;1999.90;999.90;;;;;;;14.47;61.95;101756.59;15621048;28;20140;-63
2021/06/13 04:16:08;;;;;;;1999.90;999.90;;;;;;;14.46;62.51;101763.38;15620932;28;20589;-63
2021/06/13 04:23:42;;;;;;;1999.90;999.90;;;;;;;14.70;61.91;101763.66;15620445;28;20056;-63
2021/06/13 04:31:18;;;;;;;1999.90;999.90;;;;;;;14.76;61.21;101762.31;15601439;28;20041;-63
2021/06/13 04:38:51;;;;;;;1999.90;999.90;;;;;;;14.66;60.95;101768.28;15619074;28;20096;-63
2021/06/13 04:46:33;;;;;;;1999.90;999.90;;;;;;;14.69;61.38;101757.22;15618411;28;20053;-63
2021/06/13 04:54:25;;;;;;;1999.90;999.90;;;;;;;14.88;61.26;101773.66;15618578;28;20284;-63
2021/06/13 05:01:59;;;;;;;1999.90;999.90;;;;;;;14.94;61.20;101783.56;15584250;28;20560;-63
2021/06/13 05:09:32;;;;;;;1999.90;999.90;;;;;;;15.11;60.94;101795.88;15618737;28;20056;-64
2021/06/13 05:17:05;;;;;;;1999.90;999.90;;;;;;;15.02;61.25;101793.94;15620590;28;20041;-61
2021/06/13 05:24:38;;;;;;;;;;;;;;;15.15;61.33;101792.06;15618335;28;20045;-63
2021/06/13 05:32:11;;;;;;;1999.90;999.90;;;;;;;15.20;61.77;101811.53;15598449;28;20199;-63
2021/06/13 05:39:43;;;;;;;1999.90;999.90;;;;;;;15.19;61.74;101809.06;15617616;28;20459;-63
2021/06/13 05:47:17;;;;;;;1999.90;999.90;;;;;;;15.30;60.81;101811.16;15606767;28;20046;-62
2021/06/13 05:54:49;;;;;;;1999.90;999.90;;;;;;;15.57;60.48;101825.91;15604904;28;20103;-62
2021/06/13 06:02:22;;;;;;;1999.90;999.90;;;;;;;15.69;60.23;101853.34;15561679;28;20049;-63
2021/06/13 06:09:54;;;;;;;1999.90;999.90;;;;;;;15.55;60.80;101850.75;15624870;28;20095;-63
2021/06/13 06:17:28;;;;;;;1999.90;999.90;;;;;;;16.13;59.96;101858.31;15626680;28;20560;-62
2021/06/13 06:25:00;;;;;;;1999.90;999.90;;;;;;;15.96;60.51;101841.59;15599517;28;20049;-62
2021/06/13 06:32:33;;;;;;;1999.90;999.90;;;;;;;16.17;59.80;101879.00;15626384;28;20124;-63
2021/06/13 06:40:07;;;;;;;1999.90;999.90;;;;;;;16.42;59.57;101874.31;15595410;28;20038;-62
2021/06/13 06:47:41;;;;;;;1999.90;999.90;;;;;;;16.16;58.57;101877.38;15598224;28;20459;-62
2021/06/13 06:55:15;;;;;;;1999.90;999.90;;;;;;;16.08;57.93;101869.81;15614470;22;20045;-72
2021/06/13 07:02:48;;;;;;;1999.90;999.90;;;;;;;15.92;58.42;101887.63;15701162;28;20053;-72
2021/06/13 07:10:20;;;;;;;1999.90;999.90;;;;;;;16.32;57.54;101902.09;15688427;28;20611;-72
2021/06/13 07:17:55;;;;;;;1999.90;999.90;;;;;;;16.44;57.60;101902.16;15694066;28;20072;-72
2021/06/13 07:25:29;;;;;;;1999.90;999.90;;;;;;;16.47;56.67;101914.75;15619467;28;20077;-74
2021/06/13 07:33:03;;;;;;;1999.90;999.90;;;;;;;16.71;55.97;101914.88;15623095;28;20551;-74
2021/06/13 07:40:38;;;;;;;1999.90;999.90;;;;;;;16.34;55.62;101922.28;15622321;28;20051;-75
2021/06/13 07:48:11;;;;;;;1999.90;999.90;;;;;;;16.51;55.17;101924.97;15624950;28;20042;-75
2021/06/13 07:55:45;;;;;;;1999.90;999.90;;;;;;;16.68;55.88;101919.22;15651921;28;20106;-75
2021/06/13 08:03:17;;;;;;;1999.90;999.90;;;;;;;17.10;54.15;101941.69;15614232;28;20461;-75
2021/06/13 08:10:50;;;;;;;1999.90;999.90;;;;;;;16.97;54.58;101937.97;15620205;28;20053;-75
2021/06/13 08:18:22;;;;;;;;;;;;;;;16.91;54.44;101956.31;15593992;28;20053;-74
2021/06/13 08:25:56;;;;;;;1999.90;999.90;;;;;;;17.16;53.62;101956.38;15610179;28;20391;-77
2021/06/13 08:33:32;;;;;;;1999.90;999.90;;;;;;;16.84;55.21;101963.66;15618317;28;20038;-74
2021/06/13 08:41:05;;;;;;;1999.90;999.90;;;;;;;16.70;55.78;101967.59;15616858;28;20053;-74
2021/06/13 08:48:37;;;;;;;;;;;;;;;17.79;53.45;101965.44;15615284;28;20049;-70
2021/06/13 08:56:11;;;;;;;1999.90;999.90;;;;;;;17.77;52.44;101974.28;15604860;28;19927;-73
2021/06/13 09:03:44;;;;;;;1999.90;999.90;;;;;;;18.71;52.31;101976.06;15594137;28;20073;-73
2021/06/13 09:11:29;;;;;;;1999.90;999.90;;;;;;;18.49;52.20;101991.53;15575257;28;20553;-72
2021/06/13 09:19:03;;;;;;;1999.90;999.90;;;;;;;18.87;52.15;102002.44;15612107;28;20107;-72
2021/06/13 09:26:37;;;;;;;1999.90;999.90;;;;;;;18.80;52.93;102005.03;15611951;28;20042;-72
2021/06/13 09:34:15;;;;;;;1999.90;999.90;;;;;;;17.59;53.86;102003.84;15614296;28;20041;-71
2021/06/13 09:41:48;;;;;;;1999.90;999.90;;;;;;;17.24;55.84;102015.53;15612950;28;20532;-71
2021/06/13 09:49:20;;;;;;;;;;;;;;;18.15;55.11;102018.31;15611306;28;20050;-71
2021/06/13 09:56:56;;;;;;;1999.90;999.90;;;;;;;18.51;52.79;102025.91;15611260;28;19925;-72
2021/06/13 10:04:30;;;;;;;1999.90;999.90;;;;;;;20.13;51.48;102028.13;15613182;28;20073;-73
2021/06/13 10:12:06;;;;;;;1999.90;999.90;;;;;;;18.21;51.55;102016.06;15610282;28;20037;-73
2021/06/13 10:19:42;;;;;;;1999.90;999.90;;;;;;;17.98;54.06;102030.66;15594149;28;20042;-72
2021/06/13 10:27:19;;;;;;;1999.90;999.90;;;;;;;18.04;54.60;102036.91;15611919;28;20049;-71
2021/06/13 10:34:59;;;;;;;1999.90;999.90;;;;;;;18.05;53.65;102044.19;15616411;28;20046;-72
2021/06/13 10:42:38;;;;;;;1999.90;999.90;;;;;;;18.13;54.09;102038.44;15635789;28;20061;-72
2021/06/13 10:50:13;;;;;;;1999.90;999.90;;;;;;;19.22;52.54;102052.75;15614516;28;20041;-71
2021/06/13 10:57:47;;;;;;;1999.90;999.90;;;;;;;18.92;52.00;102050.25;15617594;28;20033;-71
2021/06/13 11:05:35;;;;;;;1999.90;999.90;;;;;;;19.58;51.36;102043.25;15607463;28;20132;-70
2021/06/13 11:13:13;;;;;;;1999.90;999.90;;;;;;;21.95;48.73;102049.06;15603931;28;20104;-71
2021/06/13 11:20:50;;;;;;;1999.90;999.90;;;;;;;21.55;46.13;102049.53;15601289;28;20120;-72
2021/06/13 11:28:27;;;;;;;1999.90;999.90;;;;;;;20.39;48.69;102063.56;15577254;28;20390;-70
2021/06/13 11:36:00;;;;;;;1999.90;999.90;;;;;;;19.22;48.20;102067.72;15613708;28;20050;-71
2021/06/13 11:43:44;;;;;;;1999.90;999.90;;;;;;;19.11;50.08;102066.56;15615243;28;20060;-72
2021/06/13 11:51:19;;;;;;;1999.90;999.90;;;;;;;20.81;48.41;102069.44;15601760;28;20048;-72
2021/06/13 11:58:59;;;;;;;1999.90;999.90;;;;;;;22.93;42.46;102062.47;15572323;28;20053;-72
2021/06/13 12:06:34;;;;;;;1999.90;999.90;;;;;;;21.95;43.66;102077.47;15633010;28;20049;-71
2021/06/13 12:14:26;;;;;;;1999.90;999.90;;;;;;;20.75;45.53;102071.78;15608751;28;20057;-72
2021/06/13 12:22:20;;;;;;;1999.90;999.90;;;;;;;20.93;44.03;102065.66;15590897;28;20049;-71
2021/06/13 12:29:56;;;;;;;1999.90;999.90;;;;;;;22.82;41.87;102052.91;15581709;28;20046;-71
2021/06/13 12:37:28;;;;;;;1999.90;999.90;;;;;;;23.93;38.47;102069.34;15608823;28;20460;-71
2021/06/13 12:45:05;;;;;;;1999.90;999.90;;;;;;;24.54;37.47;102062.13;15614320;28;20041;-71
2021/06/13 12:52:47;;;;;;;1999.90;999.90;;;;;;;23.18;39.50;102054.22;15613611;28;20047;-71
2021/06/13 13:00:23;;;;;;;1999.90;999.90;;;;;;;29.65;30.41;102070.69;15586722;28;20057;-70
2021/06/13 13:08:12;;;;;;;1999.90;999.90;;;;;;;24.32;37.21;102066.03;15580453;28;20057;-71
2021/06/13 13:15:48;;;;;;;1999.90;999.90;;;;;;;23.95;38.98;102058.34;15605182;28;20056;-71
2021/06/13 13:23:20;;;;;;;1999.90;999.90;;;;;;;24.07;36.81;102054.38;15601529;28;20498;-72
2021/06/13 13:30:56;;;;;;;1999.90;999.90;;;;;;;23.83;36.89;102050.09;15599002;28;20438;-72
2021/06/13 13:38:37;;;;;;;1999.90;999.90;;;;;;;23.89;37.17;102046.50;15578770;28;20052;-73
2021/06/13 13:46:30;;;;;;;1999.90;999.90;;;;;;;23.97;36.78;102032.28;15568321;28;20056;-72
2021/06/13 13:54:02;;;;;;;1999.90;999.90;;;;;;;23.99;36.66;102027.84;15600410;28;20095;-73
2021/06/13 14:01:36;;;;;;;1999.90;999.90;;;;;;;24.59;38.70;102018.94;15584011;28;20132;-72
2021/06/13 14:09:08;;;;;;;1999.90;999.90;;;;;;;23.71;37.17;102019.03;15569424;28;20325;-71
2021/06/13 14:16:42;;;;;;;1999.90;999.90;;;;;;;23.60;38.82;102024.63;15588586;28;20045;-71
2021/06/13 14:24:19;;;;;;;1999.90;999.90;;;;;;;23.63;37.91;102020.16;15609749;28;20210;-72
2021/06/13 14:31:53;;;;;;;1999.90;999.90;;;;;;;23.28;39.10;102024.25;15619039;28;20445;-72
2021/06/13 14:39:25;;;;;;;1999.90;999.90;;;;;;;23.15;38.52;102020.03;15618929;28;20046;-73
2021/06/13 14:46:58;;;;;;;1999.90;999.90;;;;;;;23.58;39.30;102016.47;15619989;28;20046;-73
2021/06/13 14:54:30;;;;;;;1999.90;999.90;;;;;;;22.68;38.58;102024.25;15599366;28;20049;-72
2021/06/13 15:02:04;;;;;;;1999.90;999.90;;;;;;;22.56;39.67;102011.09;15587777;28;20505;-72
2021/06/13 15:09:36;;;;;;;1999.90;999.90;;;;;;;23.36;38.56;102017.44;15571253;28;20194;-70
2021/06/13 15:17:10;;;;;;;1999.90;999.90;;;;;;;23.44;39.43;102010.59;15543741;28;20065;-72
2021/06/13 15:24:42;;;;;;;1999.90;999.90;;;;;;;23.07;39.41;102012.59;15612440;28;20042;-73
2021/06/13 15:32:16;;;;;;;1999.90;999.90;;;;;;;23.08;39.22;102011.41;15601771;28;20056;-73
2021/06/13 15:39:49;;;;;;;1999.90;999.90;;;;;;;23.25;38.09;102008.78;15618283;28;20513;-72
2021/06/13 15:47:24;;;;;;;1999.90;999.90;;;;;;;23.27;38.83;102000.66;15555056;28;20053;-71
2021/06/13 15:54:56;;;;;;;1999.90;999.90;;;;;;;22.88;40.42;101991.63;15596732;28;20073;-72
2021/06/13 16:02:32;;;;;;;1999.90;999.90;;;;;;;23.18;38.11;101997.28;15568718;28;20511;-72
2021/06/13 16:10:06;;;;;;;1999.90;999.90;;;;;;;23.04;39.07;101989.41;15607557;28;20296;-71
2021/06/13 16:17:39;;;;;;;1999.90;999.90;;;;;;;22.57;39.93;101978.59;15612100;28;20072;-72
2021/06/13 16:25:12;;;;;;;1999.90;999.90;;;;;;;22.83;38.82;101976.91;15605512;28;20107;-73
2021/06/13 16:32:46;;;;;;;1999.90;999.90;;;;;;;22.92;39.68;101963.19;15615524;28;20038;-73
2021/06/13 16:40:18;;;;;;;1999.90;999.90;;;;;;;22.46;40.75;101971.94;15620623;28;20552;-72
2021/06/13 16:47:52;;;;;;;1999.90;999.90;;;;;;;22.73;39.25;101956.47;15580947;28;20038;-72
2021/06/13 16:55:25;;;;;;;1999.90;999.90;;;;;;;22.47;39.22;101971.53;15612404;28;20239;-71
2021/06/13 17:02:59;;;;;;;1999.90;999.90;;;;;;;22.09;40.46;101975.47;15615864;28;20113;-72
2021/06/13 17:10:31;;;;;;;1999.90;999.90;;;;;;;21.73;40.90;101970.34;15608778;28;20456;-71
2021/06/13 17:18:05;;;;;;;1999.90;999.90;;;;;;;22.20;41.12;101981.31;15615842;28;20513;-71
2021/06/13 17:25:41;;;;;;;1999.90;999.90;;;;;;;21.93;41.39;101985.28;15611446;28;20501;-72
2021/06/13 17:33:16;;;;;;;1999.90;999.90;;;;;;;22.04;42.82;101987.09;15609515;28;20048;-72
2021/06/13 17:40:48;;;;;;;1999.90;999.90;;;;;;;21.71;41.90;101987.75;15609721;28;20473;-72
2021/06/13 17:48:21;;;;;;;1999.90;999.90;;;;;;;21.89;42.64;101988.91;15610294;28;20042;-72
2021/06/13 17:55:53;;;;;;;1999.90;999.90;;;;;;;21.53;42.60;101989.47;15611631;28;20441;-72
2021/06/13 18:03:27;;;;;;;1999.90;999.90;;;;;;;21.56;42.57;101978.16;15593723;28;20049;-73
2021/06/13 18:11:01;;;;;;;1999.90;999.90;;;;;;;21.39;42.78;101980.69;15609578;28;20549;-70
2021/06/13 18:18:34;;;;;;;1999.90;999.90;;;;;;;21.25;43.68;101978.34;15580759;28;44014;-72
2021/06/13 18:26:07;;;;;;;1999.90;999.90;;;;;;;20.93;43.88;101974.88;15590109;28;20277;-70
2021/06/13 18:33:41;;;;;;;1999.90;999.90;;;;;;;21.05;44.97;101977.56;15608662;28;20045;-72
2021/06/13 18:41:16;;;;;;;1999.90;999.90;;;;;;;20.92;44.97;101979.72;15609063;28;20402;-72
2021/06/13 18:48:49;;;;;;;1999.90;999.90;;;;;;;20.67;47.00;101984.88;15610522;28;20057;-71
2021/06/13 18:56:23;;;;;;;1999.90;999.90;;;;;;;20.64;46.54;101985.63;15603329;28;20099;-71
2021/06/13 19:03:56;;;;;;;1999.90;999.90;;;;;;;20.46;47.58;101990.88;15611928;28;20050;-72
2021/06/13 19:11:28;;;;;;;1999.90;999.90;;;;;;;20.28;48.15;101998.13;15586507;28;20078;-72
2021/06/13 19:19:02;;;;;;;1999.90;999.90;;;;;;;20.02;49.29;101995.88;15638860;22;20519;-65
2021/06/13 19:26:34;;;;;;;1999.90;999.90;;;;;;;19.79;49.87;102004.19;15707605;28;20059;-65
2021/06/13 19:34:08;;;;;;;1999.90;999.90;;;;;;;19.56;51.42;102009.66;15692945;28;20477;-65
2021/06/13 19:41:41;;;;;;;1999.90;999.90;;;;;;;19.33;51.77;102015.06;15695725;28;20405;-66
2021/06/13 19:49:16;;;;;;;1999.90;999.90;;;;;;;19.24;51.89;102013.56;15691341;28;20098;-67
2021/06/13 19:56:49;;;;;;;1999.90;999.90;;;;;;;18.95;52.94;102026.88;15700433;28;20056;-64
2021/06/13 20:04:23;;;;;;;1999.90;999.90;;;;;;;18.76;53.64;102015.44;15694223;28;20086;-66
2021/06/13 20:11:55;;;;;;;1999.90;999.90;;;;;;;18.57;54.31;102018.03;15687663;28;20067;-66
2021/06/13 20:19:30;;;;;;;1999.90;999.90;;;;;;;18.53;54.60;102014.25;15697440;28;20452;-63
2021/06/13 20:27:08;;;;;;;1999.90;999.90;;;;;;;18.29;55.48;102006.63;15689806;28;20047;-67
2021/06/13 20:34:47;;;;;;;1999.90;999.90;;;;;;;18.13;55.65;101998.03;15730905;28;20231;-65
2021/06/13 20:42:24;;;;;;;1999.90;999.90;;;;;;;18.06;55.76;102000.66;15716973;28;20062;-65
2021/06/13 20:49:59;;;;;;;1999.90;999.90;;;;;;;17.93;56.35;102005.47;15702373;28;20049;-66
2021/06/13 20:57:31;;;;;;;1999.90;999.90;;;;;;;17.84;57.17;102010.41;15683757;28;20056;-64
2021/06/13 21:05:06;;;;;;;1999.90;999.90;;;;;;;17.76;57.37;102012.16;15690286;28;20041;-66
2021/06/13 21:12:39;;;;;;;1999.90;999.90;;;;;;;17.65;57.95;102010.94;15699167;28;20041;-66
2021/06/13 21:20:13;;;;;;;1999.90;999.90;;;;;;;17.53;58.56;102016.56;15692095;28;20068;-67
2021/06/13 21:27:46;;;;;;;1999.90;999.90;;;;;;;17.47;58.10;102013.13;15719793;28;20102;-65
2021/06/13 21:35:21;;;;;;;1999.90;999.90;;;;;;;17.41;58.94;102008.06;15701151;28;20049;-65
2021/06/13 21:42:54;;;;;;;1999.90;999.90;;;;;;;17.23;59.50;102002.59;15697504;28;20040;-65
2021/06/13 21:50:28;;;;;;;1999.90;999.90;;;;;;;17.10;59.88;102022.66;15709849;28;20041;-65
2021/06/13 21:58:00;;;;;;;1999.90;999.90;;;;;;;16.93;60.51;102015.97;15725071;28;20128;-65
2021/06/13 22:05:34;;;;;;;1999.90;999.90;;;;;;;16.80;61.26;102024.72;15715169;28;20055;-64
2021/06/13 22:13:06;;;;;;;1999.90;999.90;;;;;;;16.63;61.38;102020.00;15680202;28;20045;-64
2021/06/13 22:20:39;;;;;;;1999.90;999.90;;;;;;;16.54;62.06;102016.44;15705507;28;20045;-64
2021/06/13 22:28:12;;;;;;;1999.90;999.90;;;;;;;16.44;62.48;102024.09;15717812;28;20508;-64
2021/06/13 22:35:45;;;;;;;1999.90;999.90;;;;;;;16.35;62.79;102026.16;15726148;28;20483;-64
2021/06/13 22:43:17;;;;;;;;;;;;;;;16.30;62.92;102017.91;15713852;28;20032;-64
2021/06/13 22:50:51;;;;;;;1999.90;999.90;;;;;;;16.11;63.20;102021.16;15707084;28;19921;-65
2021/06/13 22:58:23;;;;;;;1999.90;999.90;;;;;;;15.91;63.85;102036.00;15733817;28;20045;-64
2021/06/13 23:05:57;;;;;;;1999.90;999.90;;;;;;;15.84;64.56;102030.09;15694142;28;20402;-64
2021/06/13 23:13:29;;;;;;;1999.90;999.90;;;;;;;15.78;64.94;102020.16;15719338;28;20043;-64
2021/06/13 23:21:03;;;;;;;1999.90;999.90;;;;;;;15.73;65.38;102017.53;15720458;28;20072;-64
2021/06/13 23:28:35;;;;;;;1999.90;999.90;;;;;;;15.53;65.10;102024.69;15708422;28;20049;-64
2021/06/13 23:36:09;;;;;;;1999.90;999.90;;;;;;;15.50;65.96;102039.41;15700915;28;20037;-64
2021/06/13 23:43:41;;;;;;;1999.90;999.90;;;;;;;15.25;66.10;102033.50;15711548;28;20041;-64
2021/06/13 23:51:15;;;;;;;1999.90;999.90;;;;;;;15.15;66.83;102039.47;15721771;28;20131;-64
2021/06/13 23:58:47;;;;;;;1999.90;999.90;;;;;;;14.99;66.88;102036.31;15710335;28;20041;-64
